You are not logged in, Click here to log in
ICAO: UKBB Country: Kiev
Latitude: 50.345 Longitude: 30.8947
Total Arrivals: 4 Total Departures: 3
Latest Arrival: 7L-222 (UBBB-UKBB)KE. CHIH-HAO Latest Departure: 7L223 (UKBB-EDFH)KE. CHIH-HAO
Scenery: http://en.wikipedia.org/wiki/Kazachinskaya_Airport
METAR : UKBB 270430Z 23006MPS 200V270 CAVOK 23/16 Q1013 R88/CLRD// NOSIG

Boryspil International Airport